createdAt,value
2022-10-13T00:01:23.003Z,7.58
2022-10-13T00:03:52.753Z,7.56
2022-10-13T00:06:25.395Z,7.55
2022-10-13T00:08:54.254Z,7.54
2022-10-13T00:11:24.652Z,7.50
2022-10-13T00:13:56.022Z,7.47
2022-10-13T00:16:24.971Z,7.45
2022-10-13T00:18:53.662Z,7.39
2022-10-13T00:21:26.728Z,7.38
2022-10-13T00:23:55.923Z,7.34
2022-10-13T00:26:26.607Z,7.32
2022-10-13T00:28:56.041Z,7.30
2022-10-13T00:31:26.288Z,7.26
2022-10-13T00:33:55.043Z,7.25
2022-10-13T00:36:25.791Z,7.23
2022-10-13T00:38:54.677Z,7.21
2022-10-13T00:41:23.400Z,7.19
2022-10-13T00:43:58.637Z,7.15
2022-10-13T00:46:28.983Z,7.11
2022-10-13T00:48:59.372Z,7.08
2022-10-13T00:51:32.823Z,7.05
2022-10-13T00:54:02.968Z,7.03
2022-10-13T00:56:31.858Z,7.00
2022-10-13T00:59:02.837Z,6.99
2022-10-13T01:01:31.443Z,6.94
2022-10-13T01:04:00.046Z,6.91
2022-10-13T01:06:29.953Z,6.89
2022-10-13T01:08:58.399Z,6.85
2022-10-13T01:11:51.261Z,6.88
2022-10-13T01:14:26.576Z,6.86
2022-10-13T01:17:03.815Z,6.82
2022-10-13T01:20:06.033Z,6.80
2022-10-13T01:22:47.138Z,6.76
2022-10-13T01:25:34.511Z,6.76
2022-10-13T01:28:19.456Z,6.76
2022-10-13T01:30:53.536Z,6.74
2022-10-13T01:33:31.732Z,6.72
2022-10-13T01:36:12.750Z,6.65
2022-10-13T01:38:47.940Z,6.70
2022-10-13T01:41:23.608Z,6.69
2022-10-13T01:43:57.781Z,6.65
2022-10-13T01:46:31.412Z,6.66
2022-10-13T01:49:03.807Z,6.62
2022-10-13T01:51:34.427Z,6.60
2022-10-13T01:54:03.111Z,6.57
2022-10-13T01:56:31.614Z,6.57
2022-10-13T01:59:03.054Z,6.55
2022-10-13T02:01:49.445Z,6.53
2022-10-13T02:04:28.927Z,6.50
2022-10-13T02:07:05.081Z,6.49
2022-10-13T02:09:43.070Z,6.46
2022-10-13T02:12:18.510Z,6.44
2022-10-13T02:14:49.654Z,6.41
2022-10-13T02:17:20.523Z,6.36
2022-10-13T02:19:49.079Z,6.37
2022-10-13T02:22:19.406Z,6.34
2022-10-13T02:24:48.410Z,6.34
2022-10-13T02:27:17.631Z,6.29
2022-10-13T02:29:53.904Z,6.31
2022-10-13T02:32:24.516Z,6.29
2022-10-13T02:34:53.492Z,6.27
2022-10-13T02:37:22.389Z,6.24
2022-10-13T02:39:50.881Z,6.19
2022-10-13T02:42:19.986Z,6.19
2022-10-13T02:44:48.571Z,6.18
2022-10-13T02:47:17.092Z,6.16
2022-10-13T02:49:47.113Z,6.07
2022-10-13T02:52:15.919Z,6.11
2022-10-13T02:54:44.420Z,6.07
2022-10-13T02:57:12.978Z,6.06
2022-10-13T02:59:41.465Z,6.03
2022-10-13T03:02:10.456Z,5.96
2022-10-13T03:04:39.140Z,5.99
2022-10-13T03:07:09.148Z,5.97
2022-10-13T03:09:37.664Z,5.96
2022-10-13T03:12:06.334Z,5.95
2022-10-13T03:14:34.843Z,5.94
2022-10-13T03:17:03.832Z,5.93
2022-10-13T03:19:33.535Z,5.93
2022-10-13T03:22:02.121Z,5.91
2022-10-13T03:24:32.569Z,5.93
2022-10-13T03:27:01.166Z,5.90
2022-10-13T03:29:30.045Z,5.90
2022-10-13T03:31:58.751Z,5.90
2022-10-13T03:34:27.326Z,5.90
2022-10-13T03:36:56.023Z,5.90
2022-10-13T03:39:25.022Z,5.88
2022-10-13T03:41:54.915Z,5.89
2022-10-13T03:44:23.712Z,5.87
2022-10-13T03:46:52.508Z,5.86
2022-10-13T03:49:21.551Z,5.84
2022-10-13T03:51:50.049Z,5.85
2022-10-13T03:54:19.114Z,5.83
2022-10-13T03:56:47.701Z,5.81
2022-10-13T03:59:18.851Z,5.80
2022-10-13T04:01:47.367Z,5.71
2022-10-13T04:04:16.125Z,5.73
2022-10-13T04:06:44.648Z,5.73
2022-10-13T04:09:13.309Z,5.75
2022-10-13T04:11:41.780Z,5.73
2022-10-13T04:14:10.369Z,5.70
2022-10-13T04:16:41.121Z,5.71
2022-10-13T04:19:10.096Z,5.69
2022-10-13T04:21:38.639Z,5.65
2022-10-13T04:24:07.999Z,5.65
2022-10-13T04:26:37.920Z,5.63
2022-10-13T04:29:07.471Z,5.61
2022-10-13T04:31:37.464Z,5.60
2022-10-13T04:34:08.091Z,5.57
2022-10-13T04:36:36.803Z,5.49
2022-10-13T04:39:05.799Z,5.56
2022-10-13T04:41:34.314Z,5.56
2022-10-13T04:44:02.945Z,5.56
2022-10-13T04:46:31.657Z,5.52
2022-10-13T04:49:00.238Z,5.52
2022-10-13T04:51:30.188Z,5.51
2022-10-13T04:54:01.328Z,5.51
2022-10-13T04:56:30.613Z,5.50
2022-10-13T04:59:00.118Z,5.48
2022-10-13T05:01:29.133Z,5.46
2022-10-13T05:04:01.089Z,5.46
2022-10-13T05:06:33.051Z,5.45
2022-10-13T05:09:02.051Z,5.45
2022-10-13T05:11:31.445Z,5.45
2022-10-13T05:14:00.556Z,5.39
2022-10-13T05:16:30.870Z,5.40
2022-10-13T05:18:59.581Z,5.38
2022-10-13T05:21:30.124Z,5.37
2022-10-13T05:24:02.795Z,5.34
2022-10-13T05:26:32.398Z,5.32
2022-10-13T05:29:02.461Z,5.30
2022-10-13T05:31:32.432Z,5.32
2022-10-13T05:34:01.240Z,5.32
2022-10-13T05:36:32.696Z,5.33
2022-10-13T05:39:05.971Z,5.30
2022-10-13T05:41:34.661Z,5.31
2022-10-13T05:44:06.129Z,5.34
2022-10-13T05:46:34.826Z,5.38
2022-10-13T05:49:03.617Z,5.40
2022-10-13T05:51:36.704Z,5.41
2022-10-13T05:54:11.739Z,5.37
2022-10-13T05:56:46.477Z,5.41
2022-10-13T05:59:23.349Z,5.42
2022-10-13T06:01:55.680Z,5.43
2022-10-13T06:04:27.590Z,5.40
2022-10-13T06:06:56.260Z,5.37
2022-10-13T06:09:26.183Z,5.36
2022-10-13T06:11:54.678Z,5.34
2022-10-13T06:14:23.155Z,5.35
2022-10-13T06:16:51.745Z,5.39
2022-10-13T06:19:20.142Z,5.44
2022-10-13T06:21:49.000Z,5.50
2022-10-13T06:24:17.599Z,5.57
2022-10-13T06:26:48.846Z,5.61
2022-10-13T06:29:19.300Z,5.65
2022-10-13T06:31:49.252Z,5.71
2022-10-13T06:34:19.036Z,5.81
2022-10-13T06:36:47.628Z,5.85
2022-10-13T06:39:16.222Z,5.97
2022-10-13T06:41:44.816Z,5.98
2022-10-13T06:44:15.566Z,6.09
2022-10-13T06:46:44.128Z,6.20
2022-10-13T06:49:14.044Z,6.28
2022-10-13T06:51:42.587Z,6.38
2022-10-13T06:54:11.204Z,6.42
2022-10-13T06:56:39.663Z,6.50
2022-10-13T06:59:08.177Z,6.61
2022-10-13T07:01:41.523Z,6.70
2022-10-13T07:04:10.859Z,6.83
2022-10-13T07:06:39.407Z,6.92
2022-10-13T07:09:09.085Z,6.97
2022-10-13T07:11:37.690Z,7.11
2022-10-13T07:14:06.150Z,7.24
2022-10-13T07:16:34.645Z,7.43
2022-10-13T07:19:04.645Z,7.52
2022-10-13T07:21:33.485Z,7.68
2022-10-13T07:24:03.176Z,7.69
2022-10-13T07:26:34.095Z,7.82
2022-10-13T07:29:02.629Z,7.98
2022-10-13T07:31:31.330Z,8.10
2022-10-13T07:34:01.519Z,8.15
2022-10-13T07:36:40.912Z,8.29
2022-10-13T07:39:10.298Z,8.39
2022-10-13T07:41:39.079Z,8.53
2022-10-13T07:44:14.778Z,8.59
2022-10-13T07:46:43.399Z,8.80
2022-10-13T07:49:15.255Z,8.89
2022-10-13T07:51:46.468Z,9.02
2022-10-13T07:54:14.986Z,9.14
2022-10-13T07:56:43.434Z,9.23
2022-10-13T07:59:12.006Z,9.34
2022-10-13T08:01:41.240Z,9.48
2022-10-13T08:04:09.752Z,9.66
2022-10-13T08:06:38.270Z,9.74
2022-10-13T08:09:08.156Z,9.87
2022-10-13T08:11:36.675Z,10.03
2022-10-13T08:14:05.173Z,10.21
2022-10-13T08:16:34.164Z,10.29
2022-10-13T08:19:02.692Z,10.39
2022-10-13T08:22:01.219Z,10.56
2022-10-13T08:24:22.975Z,10.58
2022-10-13T08:26:51.736Z,10.78
2022-10-13T08:29:22.354Z,10.89
2022-10-13T08:31:52.376Z,10.98
2022-10-13T08:34:21.198Z,11.17
2022-10-13T08:36:53.057Z,11.28
2022-10-13T08:39:24.482Z,11.43
2022-10-13T08:41:53.444Z,11.57
2022-10-13T08:47:25.875Z,11.73
2022-10-13T08:49:59.795Z,11.84
2022-10-13T08:52:31.441Z,11.91
2022-10-13T08:55:01.490Z,12.06
2022-10-13T08:57:30.302Z,12.10
2022-10-13T08:59:58.904Z,12.24
2022-10-13T09:02:32.317Z,12.27
2022-10-13T09:05:04.817Z,12.42
2022-10-13T09:07:38.226Z,12.67
2022-10-13T09:10:10.588Z,12.79
2022-10-13T09:12:39.145Z,12.89
2022-10-13T09:15:10.290Z,12.92
2022-10-13T09:17:40.912Z,12.92
2022-10-13T09:20:20.853Z,12.99
2022-10-13T09:23:03.854Z,13.05
2022-10-13T09:25:42.294Z,13.09
2022-10-13T09:28:17.187Z,13.22
2022-10-13T09:30:48.376Z,13.36
2022-10-13T09:33:25.142Z,13.44
2022-10-13T09:36:12.147Z,13.51
2022-10-13T09:38:41.806Z,13.56
2022-10-13T09:41:21.101Z,13.70
2022-10-13T09:44:06.062Z,13.97
2022-10-13T09:46:37.876Z,13.94
2022-10-13T09:49:09.800Z,14.03
2022-10-13T09:51:41.276Z,14.13
2022-10-13T09:54:28.833Z,14.18
2022-10-13T09:57:03.340Z,14.37
2022-10-13T09:59:34.853Z,14.45
2022-10-13T10:02:18.025Z,14.59
2022-10-13T10:04:49.169Z,14.67
2022-10-13T10:07:23.302Z,14.71
2022-10-13T10:09:56.410Z,14.76
2022-10-13T10:12:31.876Z,14.85
2022-10-13T10:15:00.439Z,15.12
2022-10-13T10:17:38.180Z,15.17
2022-10-13T10:20:26.684Z,15.27
2022-10-13T10:23:03.667Z,15.42
2022-10-13T10:25:39.618Z,15.58
2022-10-13T10:28:24.529Z,15.75
2022-10-13T10:31:01.047Z,15.83
2022-10-13T10:33:37.560Z,15.94
2022-10-13T10:36:17.034Z,16.08
2022-10-13T10:38:50.917Z,16.15
2022-10-13T10:41:40.128Z,16.25
2022-10-13T10:44:14.337Z,16.40
2022-10-13T10:46:48.133Z,16.54
2022-10-13T10:49:21.454Z,16.67
2022-10-13T10:51:50.850Z,16.81
2022-10-13T10:54:32.435Z,16.94
2022-10-13T10:57:08.023Z,17.09
2022-10-13T10:59:51.396Z,17.27
2022-10-13T11:02:42.828Z,17.43
2022-10-13T11:05:11.805Z,17.44
2022-10-13T11:08:01.408Z,17.66
2022-10-13T11:10:30.807Z,17.79
2022-10-13T11:13:18.726Z,17.95
2022-10-13T11:15:48.951Z,18.08
2022-10-13T11:18:54.540Z,18.27
2022-10-13T11:21:23.662Z,18.32
2022-10-13T11:23:52.232Z,18.34
2022-10-13T11:26:32.546Z,18.24
2022-10-13T11:29:01.533Z,18.36
2022-10-13T11:31:50.497Z,18.37
2022-10-13T11:34:30.343Z,18.40
2022-10-13T11:37:02.005Z,18.56
2022-10-13T11:40:00.867Z,18.66
2022-10-13T11:43:08.478Z,18.80
2022-10-13T11:46:06.613Z,18.78
2022-10-13T11:49:11.307Z,18.94
2022-10-13T11:51:57.517Z,19.00
2022-10-13T11:54:33.848Z,19.25
2022-10-13T11:57:02.432Z,19.27
2022-10-13T11:59:33.496Z,19.40
2022-10-13T12:02:13.997Z,19.45
2022-10-13T12:04:47.141Z,19.42
2022-10-13T12:07:17.394Z,19.54
2022-10-13T12:09:52.411Z,19.76
2022-10-13T12:12:23.228Z,19.87
2022-10-13T12:14:55.055Z,19.85
2022-10-13T12:17:25.954Z,19.51
2022-10-13T12:19:58.515Z,19.74
2022-10-13T12:22:27.732Z,19.83
2022-10-13T12:25:00.730Z,19.70
2022-10-13T12:27:32.806Z,19.82
2022-10-13T12:30:01.418Z,19.85
2022-10-13T12:32:31.485Z,19.79
2022-10-13T12:35:19.850Z,19.71
2022-10-13T12:37:49.351Z,19.84
2022-10-13T12:40:19.677Z,19.95
2022-10-13T12:42:49.048Z,19.98
2022-10-13T12:45:19.656Z,19.83
2022-10-13T12:47:50.335Z,20.11
2022-10-13T12:50:38.941Z,20.11
2022-10-13T12:53:14.608Z,19.94
2022-10-13T12:55:55.559Z,20.16
2022-10-13T12:58:28.439Z,20.11
2022-10-13T13:01:07.975Z,20.25
2022-10-13T13:03:39.144Z,20.34
2022-10-13T13:06:34.830Z,20.09
2022-10-13T13:09:28.850Z,20.20
2022-10-13T13:12:28.575Z,20.14
2022-10-13T13:14:58.626Z,20.38
2022-10-13T13:17:56.543Z,20.58
2022-10-13T13:20:22.362Z,20.83
2022-10-13T13:22:52.293Z,20.45
2022-10-13T13:25:20.941Z,20.32
2022-10-13T13:27:49.443Z,20.28
2022-10-13T13:30:19.707Z,20.27
2022-10-13T13:32:48.386Z,20.33
2022-10-13T13:35:16.952Z,20.39
2022-10-13T13:37:49.149Z,20.44
2022-10-13T13:40:21.308Z,20.57
2022-10-13T13:42:49.987Z,20.79
2022-10-13T13:45:20.189Z,20.82
2022-10-13T13:47:50.848Z,20.78
2022-10-13T13:50:23.435Z,20.81
2022-10-13T13:52:52.042Z,20.78
2022-10-13T13:55:23.339Z,20.99
2022-10-13T13:57:53.428Z,20.91
2022-10-13T14:00:22.505Z,20.96
2022-10-13T14:02:51.410Z,20.81
2022-10-13T14:05:19.889Z,20.81
2022-10-13T14:07:48.352Z,20.69
2022-10-13T14:10:17.155Z,20.40
2022-10-13T14:12:47.094Z,20.14
2022-10-13T14:15:15.671Z,19.95
2022-10-13T14:17:44.350Z,19.87
2022-10-13T14:20:13.962Z,19.78
2022-10-13T14:22:42.817Z,19.78
2022-10-13T14:25:12.189Z,19.83
2022-10-13T14:27:41.164Z,19.93
2022-10-13T14:30:12.323Z,19.79
2022-10-13T14:32:41.168Z,19.76
2022-10-13T14:35:10.264Z,19.68
2022-10-13T14:37:39.258Z,19.64
2022-10-13T14:40:08.936Z,19.76
2022-10-13T14:42:39.240Z,19.61
2022-10-13T14:45:09.373Z,19.77
2022-10-13T14:47:39.283Z,19.90
2022-10-13T14:50:08.878Z,19.82
2022-10-13T14:52:39.102Z,19.50
2022-10-13T14:55:08.655Z,19.58
2022-10-13T14:57:37.194Z,19.57
2022-10-13T15:00:06.533Z,19.45
2022-10-13T15:02:35.115Z,19.12
2022-10-13T15:05:06.679Z,19.03
2022-10-13T15:07:41.191Z,18.97
2022-10-13T15:10:10.604Z,18.82
2022-10-13T15:12:39.304Z,18.63
2022-10-13T15:15:08.677Z,18.65
2022-10-13T15:17:38.388Z,18.57
2022-10-13T15:20:09.923Z,18.23
2022-10-13T15:22:38.770Z,18.13
2022-10-13T15:25:10.557Z,18.41
2022-10-13T15:27:42.272Z,18.54
2022-10-13T15:30:12.115Z,18.22
2022-10-13T15:32:41.315Z,18.19
2022-10-13T15:35:16.648Z,18.02
2022-10-13T15:37:48.322Z,17.78
2022-10-13T15:40:17.333Z,17.70
2022-10-13T15:42:46.407Z,17.63
2022-10-13T15:45:16.162Z,17.67
2022-10-13T15:47:48.267Z,17.70
2022-10-13T15:50:19.719Z,17.74
2022-10-13T15:52:49.001Z,17.81
2022-10-13T15:55:18.257Z,17.84
2022-10-13T15:57:47.308Z,17.54
2022-10-13T16:00:17.198Z,17.47
2022-10-13T16:02:46.577Z,17.31
2022-10-13T16:05:20.061Z,17.23
2022-10-13T16:07:51.987Z,16.97
2022-10-13T16:10:22.992Z,16.75
2022-10-13T16:12:53.206Z,16.56
2022-10-13T16:15:23.752Z,16.58
2022-10-13T16:17:53.661Z,16.48
2022-10-13T16:20:23.467Z,16.35
2022-10-13T16:22:54.977Z,16.46
2022-10-13T16:25:23.969Z,16.45
2022-10-13T16:27:52.536Z,16.47
2022-10-13T16:30:22.442Z,16.40
2022-10-13T16:32:51.345Z,16.32
2022-10-13T16:35:19.929Z,16.32
2022-10-13T16:37:49.004Z,16.27
2022-10-13T16:40:19.373Z,16.10
2022-10-13T16:42:48.228Z,15.79
2022-10-13T16:45:17.170Z,15.86
2022-10-13T16:47:51.150Z,15.96
2022-10-13T16:50:19.761Z,15.94
2022-10-13T16:52:48.354Z,15.91
2022-10-13T16:55:17.179Z,15.91
2022-10-13T16:57:48.218Z,15.90
2022-10-13T17:00:16.867Z,15.79
2022-10-13T17:02:45.352Z,15.89
2022-10-13T17:05:14.108Z,15.95
2022-10-13T17:07:42.913Z,15.95
2022-10-13T17:10:12.136Z,15.91
2022-10-13T17:12:40.669Z,15.77
2022-10-13T17:15:11.881Z,15.79
2022-10-13T17:17:40.357Z,15.68
2022-10-13T17:20:14.743Z,15.75
2022-10-13T17:22:43.576Z,15.29
2022-10-13T17:25:13.716Z,14.87
2022-10-13T17:28:03.436Z,14.71
2022-10-13T17:30:48.149Z,14.73
2022-10-13T17:33:37.279Z,14.92
2022-10-13T17:36:07.529Z,15.06
2022-10-13T17:38:36.407Z,15.13
2022-10-13T17:41:08.290Z,15.20
2022-10-13T17:43:38.978Z,15.20
2022-10-13T17:46:35.647Z,15.24
2022-10-13T17:49:05.557Z,15.24
2022-10-13T17:51:35.543Z,15.31
2022-10-13T17:54:04.135Z,15.33
2022-10-13T17:56:32.831Z,15.34
2022-10-13T17:59:02.166Z,15.34
2022-10-13T18:01:33.426Z,15.37
2022-10-13T18:04:05.384Z,15.37
2022-10-13T18:06:40.210Z,15.32
2022-10-13T18:09:10.494Z,15.20
2022-10-13T18:11:39.757Z,15.12
2022-10-13T18:14:09.167Z,15.13
2022-10-13T18:16:39.274Z,15.08
2022-10-13T18:19:08.176Z,15.03
2022-10-13T18:21:36.609Z,14.96
2022-10-13T18:24:05.394Z,14.97
2022-10-13T18:26:36.148Z,14.93
2022-10-13T18:29:06.413Z,14.95
2022-10-13T18:31:36.151Z,14.89
2022-10-13T18:34:08.092Z,14.84
2022-10-13T18:36:38.336Z,14.81
2022-10-13T18:39:09.132Z,14.71
2022-10-13T18:41:39.028Z,14.72
2022-10-13T18:44:20.269Z,14.71
2022-10-13T18:46:51.656Z,14.70
2022-10-13T18:49:24.085Z,14.67
2022-10-13T18:51:52.819Z,14.62
2022-10-13T18:54:21.382Z,14.57
2022-10-13T18:56:50.073Z,14.52
2022-10-13T18:59:18.668Z,14.51
2022-10-13T19:01:47.806Z,14.46
2022-10-13T19:04:17.173Z,14.44
2022-10-13T19:06:48.034Z,14.37
2022-10-13T19:09:20.476Z,14.30
2022-10-13T19:11:49.058Z,14.27
2022-10-13T19:14:20.175Z,14.23
2022-10-13T19:16:48.930Z,14.16
2022-10-13T19:19:17.621Z,14.01
2022-10-13T19:21:47.832Z,13.91
2022-10-13T19:24:16.302Z,13.88
2022-10-13T19:26:44.914Z,13.86
2022-10-13T19:29:16.488Z,13.80
2022-10-13T19:31:45.448Z,13.82
2022-10-13T19:34:14.901Z,13.79
2022-10-13T19:36:45.409Z,13.69
2022-10-13T19:39:17.999Z,13.74
2022-10-13T19:41:47.205Z,13.70
2022-10-13T19:44:16.812Z,13.63
2022-10-13T19:46:47.313Z,13.60
2022-10-13T19:49:19.291Z,13.58
2022-10-13T19:51:49.614Z,13.57
2022-10-13T19:54:21.326Z,13.54
2022-10-13T19:56:51.624Z,13.52
2022-10-13T19:59:21.455Z,13.47
2022-10-13T20:01:50.479Z,13.47
2022-10-13T20:04:22.104Z,13.43
2022-10-13T20:06:52.458Z,13.43
2022-10-13T20:09:23.466Z,13.43
2022-10-13T20:12:02.401Z,13.44
2022-10-13T20:14:32.192Z,13.42
2022-10-13T20:17:01.521Z,13.40
2022-10-13T20:19:30.494Z,13.37
2022-10-13T20:22:01.571Z,13.37
2022-10-13T20:24:32.696Z,13.35
2022-10-13T20:27:01.709Z,13.35
2022-10-13T20:29:30.781Z,13.37
2022-10-13T20:32:02.871Z,13.39
2022-10-13T20:34:32.995Z,13.41
2022-10-13T20:37:01.775Z,13.44
2022-10-13T20:39:31.803Z,13.45
2022-10-13T20:42:00.804Z,13.44
2022-10-13T20:44:29.781Z,13.44
2022-10-13T20:46:58.732Z,13.47
2022-10-13T20:49:28.552Z,13.46
2022-10-13T20:51:57.594Z,13.47
2022-10-13T20:54:27.321Z,13.49
2022-10-13T20:56:58.170Z,13.48
2022-10-13T20:59:26.860Z,13.51
2022-10-13T21:01:55.461Z,13.49
2022-10-13T21:04:24.862Z,13.51
2022-10-13T21:06:54.399Z,13.48
2022-10-13T21:09:23.778Z,13.41
2022-10-13T21:11:52.522Z,13.42
2022-10-13T21:14:23.095Z,13.43
2022-10-13T21:16:52.002Z,13.41
2022-10-13T21:19:21.299Z,13.44
2022-10-13T21:21:50.207Z,13.42
2022-10-13T21:24:18.995Z,13.36
2022-10-13T21:26:47.996Z,13.34
2022-10-13T21:29:16.583Z,13.31
2022-10-13T21:31:46.712Z,13.29
2022-10-13T21:34:15.391Z,13.23
2022-10-13T21:36:45.320Z,13.26
2022-10-13T21:39:13.818Z,13.22
2022-10-13T21:41:43.118Z,13.09
2022-10-13T21:44:14.654Z,13.16
2022-10-13T21:46:43.373Z,13.16
2022-10-13T21:49:13.468Z,13.16
2022-10-13T21:51:42.616Z,13.17
2022-10-13T21:54:13.471Z,13.12
2022-10-13T21:56:42.543Z,13.05
2022-10-13T21:59:13.047Z,13.09
2022-10-13T22:01:41.930Z,13.05
2022-10-13T22:04:14.112Z,13.04
2022-10-13T22:06:43.021Z,13.04
2022-10-13T22:09:12.221Z,13.03
2022-10-13T22:11:41.218Z,13.00
2022-10-13T22:14:10.417Z,12.97
2022-10-13T22:16:41.465Z,12.94
2022-10-13T22:19:10.872Z,12.92
2022-10-13T22:21:42.952Z,12.89
2022-10-13T22:24:13.978Z,12.88
2022-10-13T22:26:43.984Z,12.83
2022-10-13T22:29:16.074Z,12.75
2022-10-13T22:31:44.473Z,12.73
2022-10-13T22:34:14.200Z,12.63
2022-10-13T22:36:45.390Z,12.64
2022-10-13T22:39:14.243Z,12.63
2022-10-13T22:41:42.785Z,12.64
2022-10-13T22:44:11.598Z,12.64
2022-10-13T22:46:41.290Z,12.64
2022-10-13T22:49:10.186Z,12.61
2022-10-13T22:51:39.094Z,12.60
2022-10-13T22:54:09.012Z,12.58
2022-10-13T22:56:37.544Z,12.55
2022-10-13T22:59:08.250Z,12.48
2022-10-13T23:01:37.555Z,12.42
2022-10-13T23:04:07.105Z,12.42
2022-10-13T23:06:36.866Z,12.42
2022-10-13T23:09:07.507Z,12.38
2022-10-13T23:11:37.605Z,12.29
2022-10-13T23:14:06.272Z,12.32
2022-10-13T23:16:35.005Z,12.23
2022-10-13T23:19:03.886Z,12.14
2022-10-13T23:21:32.826Z,12.09
2022-10-13T23:24:03.358Z,12.00
2022-10-13T23:26:33.880Z,12.03
2022-10-13T23:29:04.108Z,12.06
2022-10-13T23:31:32.584Z,12.05
2022-10-13T23:34:01.148Z,11.99
2022-10-13T23:36:31.734Z,11.97
2022-10-13T23:39:02.062Z,11.56
2022-10-13T23:41:30.620Z,11.61
2022-10-13T23:43:59.525Z,11.62
2022-10-13T23:46:30.019Z,11.72
2022-10-13T23:48:58.665Z,11.75
2022-10-13T23:51:27.965Z,11.56
2022-10-13T23:53:56.808Z,11.48
2022-10-13T23:56:25.514Z,11.37
2022-10-13T23:58:54.227Z,11.22
